Rena Lara, MS (38767)

10:30 AM CDT on July 07, 2015 (GMT -0500)
Clarksdale | | Change Station
CLOSE
Current Station
Personal Weather Station
Location: Clarksdale, MS
Elevation: 164 ft
Nearby Weather Stations

Elev 164 ft 34.10 °N, 90.61 °W | Updated 5 seconds ago

Partly Cloudy
Partly Cloudy
83.6 °F
Feels Like 95 °F
N
13.0
Wind Variable Wind from SSW
Gusts 14.0 mph

Today
High -- | Low -- °F
--% Chance of Precip.
Yesterday
High -- | Low -- °F
Precip. -- in
5:57 AM 8:18 PM
Waning Gibbous, 64% visible
Pressure 30.08 in
Visibility 8.0 miles
Clouds Few 2400 ft
Heat Index 95 °F
Dew Point 79 °F
Humidity 85%
Rainfall 0.00 in
Snow Depth Not available.
UV 7 out of 12
Pollen 1.10 out of 12
Air Quality Not available.
Flu Activity Not available.
METAR KCKM 071515Z AUTO 20012KT 8SM FEW024 29/25 A3008 RMK AO1

More Conditions Fewer Conditions

Pressure 30.08 in
Visibility 8.0 miles
Clouds Few 2400 ft
Heat Index 95 °F
Dew Point 79 °F
Humidity 85%
Rainfall 0.00 in
Snow Depth Not available.
UV 7 out of 12
Pollen 1.10 out of 12
Air Quality Not available.
Flu Activity Not available.
METAR KCKM 071515Z AUTO 20012KT 8SM FEW024 29/25 A3008 RMK AO1

More Conditions Fewer Conditions

10-Day Weather Forecast

×

Almanac

Astronomy

Jul. 07, 2015 Rise Set
Actual Time
Civil Twilight
Nautical Twilight
Astronomical Twilight
Moon
Length of Visible Light
Length of Day
Tomorrow will be .
, % of the Moon is Illuminated

Today's Extremes

State Highs State Lows

Community

WunderPhotos

Upload Photos

1,835,818 photos uploaded!

WunderBlogs® & News

Nearby

Air Quality

  Air Quality AQ Index Pollutant
Not available.

Snow Depth

Station Depth Elevation

Earthquake Activity

City Distance Mag. Time & Date
Minimum magnitude displayed is 2.5.

Coastal Water Temperatures

Place Temperature

Stations

Nearby Weather Stations

Station Location Temp. Windchill Dew Point Humidity Wind Precip. Elev Updated Type